Gerd Maersk — OYGM2 — position and weather

sailwx.info

Track history (hours):
 
Tides and Currents Weather Stations Pressure Air Temp Water Temp Dewpoint Dewpoint Depression Visibility Wind Speed Wind Dir Waves Ship Positions

Gerd Maersk

Last reported at 2016-May-04 04:33 UTC. Time now 2016-May-04 05:59 UTC.
Position N 35°24' E 139°41'.

Length 367 m; draft 14.3 m.

Type: Cargo ship. MMSI: 220415000.

Date/timePositionNaut miles runAvg speedWind from/ knotsBaromVisibWave heightAir tempDewpointWater temp
2016-May-04 04:33N 35°24' E 139°41'0 0.0
2016-May-04 03:33N 35°24' E 139°41'0 0.0
2016-May-04 02:33N 35°24' E 139°41'0 0.0
2016-May-04 01:33N 35°24' E 139°41'0 0.0
2016-May-04 00:31N 35°24' E 139°41'0 0.0
2016-May-03 23:31N 35°24' E 139°41'0 0.0
2016-May-03 22:31N 35°24' E 139°41'0 0.0
2016-May-03 21:31N 35°24' E 139°41'0 0.0
2016-May-03 20:31N 35°24' E 139°41'0 0.0
2016-May-03 19:28N 35°24' E 139°41'0 0.0
2016-May-03 18:32N 35°24' E 139°41'0 0.0
2016-May-03 17:32N 35°24' E 139°41'0 0.0
2016-May-03 16:32N 35°24' E 139°41'0 0.0
2016-May-03 15:32N 35°24' E 139°41'0 0.0
2016-May-03 14:32N 35°24' E 139°41'0 0.0
2016-May-03 13:32N 35°24' E 139°41'0 0.0
2016-May-03 12:32N 35°24' E 139°41'0 0.0
2016-May-03 11:32N 35°24' E 139°41'0 0.0
2016-May-03 10:29N 35°24' E 139°41'0 0.0
2016-May-03 09:32N 35°24' E 139°41'0 0.0
2016-May-03 08:32N 35°24' E 139°41'0 0.0
2016-May-03 07:32N 35°24' E 139°41'0 0.0
2016-May-03 06:26N 35°24' E 139°41'0 0.0
2016-May-03 05:26N 35°24' E 139°41'0 0.0
2016-May-03 04:32N 35°24' E 139°41'0 0.0
2016-May-03 03:33N 35°24' E 139°41'2 1.7
2016-May-03 02:33N 35°23' E 139°42'1111.1
2016-May-03 01:33N 35°12' E 139°47'1313.1
2016-May-03 00:33N 34°60' E 139°42'2919.5
2016-May-02 23:04N 34°32' E 139°31'87119.8
2016-May-01 03:05N 30°34' E 122°57'4417.6
2016-May-01 00:33N 30°36' E 122°05'3 0.4
2016-Apr-30 17:22N 30°38' E 122°03'0 0.0
2016-Apr-30 16:22N 30°38' E 122°03'0 0.0
2016-Apr-30 12:22N 30°38' E 122°03'0 0.0
2016-Apr-30 11:10N 30°38' E 122°03'0 0.0
2016-Apr-30 10:25N 30°38' E 122°03'0 0.0
2016-Apr-30 09:19N 30°38' E 122°03'0 0.0
2016-Apr-30 08:31N 30°38' E 122°03'0 0.0
2016-Apr-30 06:31N 30°38' E 122°03'0 0.0
2016-Apr-30 05:31N 30°38' E 122°03'0 0.0
2016-Apr-30 04:28N 30°38' E 122°03'0 0.0
2016-Apr-30 03:31N 30°38' E 122°03'0 0.0
2016-Apr-30 02:31N 30°38' E 122°03'0 0.0
2016-Apr-30 00:22N 30°38' E 122°03'0 0.2
2016-Apr-29 22:31N 30°38' E 122°03'3 3.3
2016-Apr-29 21:33N 30°36' E 122°06'10 9.8
2016-Apr-29 20:33N 30°34' E 122°17'6 6.0
2016-Apr-29 19:32N 30°32' E 122°24'6 6.1
2016-Apr-29 18:31N 30°28' E 122°30'0 0.1
2016-Apr-29 14:30N 30°28' E 122°30'2 0.3
2016-Apr-29 06:16N 30°30' E 122°31'8 8.7
2016-Apr-29 05:25N 30°29' E 122°40'1112.2
2016-Apr-29 04:31N 30°24' E 122°51'46 8.7
2016-Apr-28 23:12N 29°40' E 122°34'812.1
2016-Apr-28 22:33N 29°42' E 122°26'1312.1
2016-Apr-28 21:31N 29°49' E 122°14'1313.2
2016-Apr-28 20:32N 29°56' E 122°01'10 9.7
2016-Apr-28 19:33N 29°57' E 121°50'0 0.1
2016-Apr-28 18:33N 29°57' E 121°50'0 0.0
2016-Apr-28 12:08N 29°57' E 121°50'0 0.0
2016-Apr-28 05:32N 29°57' E 121°50'0 0.0
2016-Apr-27 16:33N 29°57' E 121°50'4 3.5
2016-Apr-27 15:33N 29°57' E 121°54'9 9.2
2016-Apr-27 14:33N 29°55' E 122°05'26 1.0
2016-Apr-26 12:33N 29°40' E 122°28'6 5.5
2016-Apr-26 11:30N 29°37' E 122°34'1611.7
2016-Apr-26 10:06N 29°20' E 122°33'33610.3
2016-Apr-25 01:21N 24°36' E 119°12'  
Track history (hours):
 
Tides and Currents Weather Stations Pressure Air Temp Water Temp Dewpoint Dewpoint Depression Visibility Wind Speed Wind Dir Waves Ship Positions

Gerd Maersk

Last reported at 2016-May-04 04:33 UTC. Time now 2016-May-04 05:59 UTC.
Position N 35°24' E 139°41'.

Length 367 m; draft 14.3 m.

Type: Cargo ship. MMSI: 220415000.

Date/timePositionNaut miles runAvg speedWind from/ knotsBaromVisibWave heightAir tempDewpointWater temp
2016-May-04 04:33N 35°24' E 139°41'0 0.0
2016-May-04 03:33N 35°24' E 139°41'0 0.0
2016-May-04 02:33N 35°24' E 139°41'0 0.0
2016-May-04 01:33N 35°24' E 139°41'0 0.0
2016-May-04 00:31N 35°24' E 139°41'0 0.0
2016-May-03 23:31N 35°24' E 139°41'0 0.0
2016-May-03 22:31N 35°24' E 139°41'0 0.0
2016-May-03 21:31N 35°24' E 139°41'0 0.0
2016-May-03 20:31N 35°24' E 139°41'0 0.0
2016-May-03 19:28N 35°24' E 139°41'0 0.0
2016-May-03 18:32N 35°24' E 139°41'0 0.0
2016-May-03 17:32N 35°24' E 139°41'0 0.0
2016-May-03 16:32N 35°24' E 139°41'0 0.0
2016-May-03 15:32N 35°24' E 139°41'0 0.0
2016-May-03 14:32N 35°24' E 139°41'0 0.0
2016-May-03 13:32N 35°24' E 139°41'0 0.0
2016-May-03 12:32N 35°24' E 139°41'0 0.0
2016-May-03 11:32N 35°24' E 139°41'0 0.0
2016-May-03 10:29N 35°24' E 139°41'0 0.0
2016-May-03 09:32N 35°24' E 139°41'0 0.0
2016-May-03 08:32N 35°24' E 139°41'0 0.0
2016-May-03 07:32N 35°24' E 139°41'0 0.0
2016-May-03 06:26N 35°24' E 139°41'0 0.0
2016-May-03 05:26N 35°24' E 139°41'0 0.0
2016-May-03 04:32N 35°24' E 139°41'0 0.0
2016-May-03 03:33N 35°24' E 139°41'2 1.7
2016-May-03 02:33N 35°23' E 139°42'1111.1
2016-May-03 01:33N 35°12' E 139°47'1313.1
2016-May-03 00:33N 34°60' E 139°42'2919.5
2016-May-02 23:04N 34°32' E 139°31'87119.8
2016-May-01 03:05N 30°34' E 122°57'4417.6
2016-May-01 00:33N 30°36' E 122°05'3 0.4
2016-Apr-30 17:22N 30°38' E 122°03'0 0.0
2016-Apr-30 16:22N 30°38' E 122°03'0 0.0
2016-Apr-30 12:22N 30°38' E 122°03'0 0.0
2016-Apr-30 11:10N 30°38' E 122°03'0 0.0
2016-Apr-30 10:25N 30°38' E 122°03'0 0.0
2016-Apr-30 09:19N 30°38' E 122°03'0 0.0
2016-Apr-30 08:31N 30°38' E 122°03'0 0.0
2016-Apr-30 06:31N 30°38' E 122°03'0 0.0
2016-Apr-30 05:31N 30°38' E 122°03'0 0.0
2016-Apr-30 04:28N 30°38' E 122°03'0 0.0
2016-Apr-30 03:31N 30°38' E 122°03'0 0.0
2016-Apr-30 02:31N 30°38' E 122°03'0 0.0
2016-Apr-30 00:22N 30°38' E 122°03'0 0.2
2016-Apr-29 22:31N 30°38' E 122°03'3 3.3
2016-Apr-29 21:33N 30°36' E 122°06'10 9.8
2016-Apr-29 20:33N 30°34' E 122°17'6 6.0
2016-Apr-29 19:32N 30°32' E 122°24'6 6.1
2016-Apr-29 18:31N 30°28' E 122°30'0 0.1
2016-Apr-29 14:30N 30°28' E 122°30'2 0.3
2016-Apr-29 06:16N 30°30' E 122°31'8 8.7
2016-Apr-29 05:25N 30°29' E 122°40'1112.2
2016-Apr-29 04:31N 30°24' E 122°51'46 8.7
2016-Apr-28 23:12N 29°40' E 122°34'812.1
2016-Apr-28 22:33N 29°42' E 122°26'1312.1
2016-Apr-28 21:31N 29°49' E 122°14'1313.2
2016-Apr-28 20:32N 29°56' E 122°01'10 9.7
2016-Apr-28 19:33N 29°57' E 121°50'0 0.1
2016-Apr-28 18:33N 29°57' E 121°50'0 0.0
2016-Apr-28 12:08N 29°57' E 121°50'0 0.0
2016-Apr-28 05:32N 29°57' E 121°50'0 0.0
2016-Apr-27 16:33N 29°57' E 121°50'4 3.5
2016-Apr-27 15:33N 29°57' E 121°54'9 9.2
2016-Apr-27 14:33N 29°55' E 122°05'26 1.0
2016-Apr-26 12:33N 29°40' E 122°28'6 5.5
2016-Apr-26 11:30N 29°37' E 122°34'1611.7
2016-Apr-26 10:06N 29°20' E 122°33'33610.3
2016-Apr-25 01:21N 24°36' E 119°12'  

Dump ship's entire track history